sensor_id;sensor_type;location;lat;lon;timestamp;P1;P2;P0
26185;PMS7003;20067;48.764;9.176;2023-04-29T00:00:05;22.25;21.75;17.25
26185;PMS7003;20067;48.764;9.176;2023-04-29T00:02:32;17.25;17.00;13.00
26185;PMS7003;20067;48.764;9.176;2023-04-29T00:04:58;17.50;16.50;13.50
26185;PMS7003;20067;48.764;9.176;2023-04-29T00:07:23;19.50;19.00;14.75
26185;PMS7003;20067;48.764;9.176;2023-04-29T00:09:49;17.25;17.25;14.00
26185;PMS7003;20067;48.764;9.176;2023-04-29T00:12:15;21.00;19.75;15.50
26185;PMS7003;20067;48.764;9.176;2023-04-29T00:14:40;18.50;16.75;13.00
26185;PMS7003;20067;48.764;9.176;2023-04-29T00:17:07;17.50;17.50;13.00
26185;PMS7003;20067;48.764;9.176;2023-04-29T00:19:33;17.00;16.75;13.00
26185;PMS7003;20067;48.764;9.176;2023-04-29T00:21:59;17.00;17.00;13.50
26185;PMS7003;20067;48.764;9.176;2023-04-29T00:24:25;16.75;16.75;13.00
26185;PMS7003;20067;48.764;9.176;2023-04-29T00:26:51;19.75;19.75;15.75
26185;PMS7003;20067;48.764;9.176;2023-04-29T00:29:16;18.75;17.75;14.75
26185;PMS7003;20067;48.764;9.176;2023-04-29T00:31:42;21.25;21.25;16.00
26185;PMS7003;20067;48.764;9.176;2023-04-29T00:34:09;20.00;19.00;15.00
26185;PMS7003;20067;48.764;9.176;2023-04-29T00:36:34;21.75;21.75;17.75
26185;PMS7003;20067;48.764;9.176;2023-04-29T00:39:00;21.00;21.00;17.00
26185;PMS7003;20067;48.764;9.176;2023-04-29T00:41:26;22.25;20.25;15.75
26185;PMS7003;20067;48.764;9.176;2023-04-29T00:43:53;18.00;18.00;13.50
26185;PMS7003;20067;48.764;9.176;2023-04-29T00:46:18;23.50;22.50;18.50
26185;PMS7003;20067;48.764;9.176;2023-04-29T00:48:44;19.00;19.00;15.00
26185;PMS7003;20067;48.764;9.176;2023-04-29T00:51:10;16.50;16.00;11.75
26185;PMS7003;20067;48.764;9.176;2023-04-29T00:53:36;16.50;16.00;12.00
26185;PMS7003;20067;48.764;9.176;2023-04-29T00:56:02;19.25;17.50;13.00
26185;PMS7003;20067;48.764;9.176;2023-04-29T00:58:29;18.75;17.00;13.00
26185;PMS7003;20067;48.764;9.176;2023-04-29T01:01:00;15.25;15.25;11.50
26185;PMS7003;20067;48.764;9.176;2023-04-29T01:03:28;16.00;16.00;12.00
26185;PMS7003;20067;48.764;9.176;2023-04-29T01:12:02;14.75;14.75;10.25
26185;PMS7003;20067;48.764;9.176;2023-04-29T01:14:25;19.75;18.75;14.75
26185;PMS7003;20067;48.764;9.176;2023-04-29T01:16:52;19.50;18.75;13.00
26185;PMS7003;20067;48.764;9.176;2023-04-29T01:22:08;16.00;16.00;11.25
26185;PMS7003;20067;48.764;9.176;2023-04-29T01:24:33;16.50;16.50;12.50
26185;PMS7003;20067;48.764;9.176;2023-04-29T01:27:04;19.50;17.00;12.25
26185;PMS7003;20067;48.764;9.176;2023-04-29T01:29:54;15.50;15.50;12.00
26185;PMS7003;20067;48.764;9.176;2023-04-29T01:32:36;16.00;15.75;11.00
26185;PMS7003;20067;48.764;9.176;2023-04-29T01:38:21;16.75;16.75;13.00
26185;PMS7003;20067;48.764;9.176;2023-04-29T01:41:44;14.75;14.75;9.75
26185;PMS7003;20067;48.764;9.176;2023-04-29T01:44:03;14.25;13.75;8.75
26185;PMS7003;20067;48.764;9.176;2023-04-29T01:46:31;14.75;14.25;9.00
26185;PMS7003;20067;48.764;9.176;2023-04-29T01:48:57;17.50;15.50;10.25
26185;PMS7003;20067;48.764;9.176;2023-04-29T01:51:23;16.00;14.00;11.00
26185;PMS7003;20067;48.764;9.176;2023-04-29T01:53:48;13.25;12.50;8.00
26185;PMS7003;20067;48.764;9.176;2023-04-29T01:56:14;12.25;12.00;9.00
26185;PMS7003;20067;48.764;9.176;2023-04-29T01:58:40;12.00;12.00;8.00
26185;PMS7003;20067;48.764;9.176;2023-04-29T02:01:05;13.00;12.00;8.00
26185;PMS7003;20067;48.764;9.176;2023-04-29T02:03:31;10.00;10.00;6.00
26185;PMS7003;20067;48.764;9.176;2023-04-29T02:05:56;14.75;13.25;9.00
26185;PMS7003;20067;48.764;9.176;2023-04-29T02:08:23;11.50;11.50;8.25
26185;PMS7003;20067;48.764;9.176;2023-04-29T02:10:52;12.25;10.75;6.50
26185;PMS7003;20067;48.764;9.176;2023-04-29T02:13:21;9.00;9.00;6.00
26185;PMS7003;20067;48.764;9.176;2023-04-29T02:15:47;11.50;11.50;7.25
26185;PMS7003;20067;48.764;9.176;2023-04-29T02:18:13;12.75;12.75;8.50
26185;PMS7003;20067;48.764;9.176;2023-04-29T02:20:39;13.00;12.75;9.00
26185;PMS7003;20067;48.764;9.176;2023-04-29T02:23:05;14.25;13.75;10.50
26185;PMS7003;20067;48.764;9.176;2023-04-29T02:25:30;15.00;15.00;11.00
26185;PMS7003;20067;48.764;9.176;2023-04-29T02:27:56;15.00;15.00;10.00
26185;PMS7003;20067;48.764;9.176;2023-04-29T02:30:22;14.75;14.75;9.00
26185;PMS7003;20067;48.764;9.176;2023-04-29T02:32:47;15.50;13.00;9.50
26185;PMS7003;20067;48.764;9.176;2023-04-29T02:35:13;13.50;13.50;9.00
26185;PMS7003;20067;48.764;9.176;2023-04-29T02:37:39;17.75;14.00;9.00
26185;PMS7003;20067;48.764;9.176;2023-04-29T02:40:04;12.00;12.00;8.00
26185;PMS7003;20067;48.764;9.176;2023-04-29T02:42:31;12.00;12.00;8.25
26185;PMS7003;20067;48.764;9.176;2023-04-29T02:44:56;12.75;12.75;8.25
26185;PMS7003;20067;48.764;9.176;2023-04-29T02:47:22;13.75;12.50;8.25
26185;PMS7003;20067;48.764;9.176;2023-04-29T02:49:48;12.00;12.00;8.00
26185;PMS7003;20067;48.764;9.176;2023-04-29T02:52:13;12.50;12.25;8.00
26185;PMS7003;20067;48.764;9.176;2023-04-29T02:54:40;12.00;12.00;6.00
26185;PMS7003;20067;48.764;9.176;2023-04-29T02:57:06;12.75;12.75;8.00
26185;PMS7003;20067;48.764;9.176;2023-04-29T02:59:32;13.00;11.00;6.00
26185;PMS7003;20067;48.764;9.176;2023-04-29T03:01:58;13.00;12.75;8.25
26185;PMS7003;20067;48.764;9.176;2023-04-29T03:04:25;12.00;12.00;8.25
26185;PMS7003;20067;48.764;9.176;2023-04-29T03:06:53;12.75;12.25;8.50
26185;PMS7003;20067;48.764;9.176;2023-04-29T03:09:20;12.00;12.00;8.00
26185;PMS7003;20067;48.764;9.176;2023-04-29T03:11:46;12.00;11.25;6.25
26185;PMS7003;20067;48.764;9.176;2023-04-29T03:14:11;11.00;11.00;7.00
26185;PMS7003;20067;48.764;9.176;2023-04-29T03:16:37;14.50;12.50;7.75
26185;PMS7003;20067;48.764;9.176;2023-04-29T03:19:02;12.00;12.00;8.00
26185;PMS7003;20067;48.764;9.176;2023-04-29T03:21:28;12.00;12.00;8.00
26185;PMS7003;20067;48.764;9.176;2023-04-29T03:23:53;15.25;12.00;8.00
26185;PMS7003;20067;48.764;9.176;2023-04-29T03:26:20;10.50;10.50;6.00
26185;PMS7003;20067;48.764;9.176;2023-04-29T03:28:48;9.50;9.50;6.00
26185;PMS7003;20067;48.764;9.176;2023-04-29T03:31:13;9.50;9.50;6.75
26185;PMS7003;20067;48.764;9.176;2023-04-29T03:33:40;11.75;11.75;6.00
26185;PMS7003;20067;48.764;9.176;2023-04-29T03:36:06;12.00;12.00;6.50
26185;PMS7003;20067;48.764;9.176;2023-04-29T03:38:32;12.00;12.00;8.00
26185;PMS7003;20067;48.764;9.176;2023-04-29T03:40:58;16.00;12.75;8.00
26185;PMS7003;20067;48.764;9.176;2023-04-29T03:43:24;12.75;12.00;8.00
26185;PMS7003;20067;48.764;9.176;2023-04-29T03:45:49;13.25;12.25;8.00
26185;PMS7003;20067;48.764;9.176;2023-04-29T03:48:15;10.50;10.50;5.00
26185;PMS7003;20067;48.764;9.176;2023-04-29T03:50:41;12.00;9.50;6.75
26185;PMS7003;20067;48.764;9.176;2023-04-29T03:53:06;12.25;12.25;6.25
26185;PMS7003;20067;48.764;9.176;2023-04-29T03:55:32;11.00;11.00;6.25
26185;PMS7003;20067;48.764;9.176;2023-04-29T03:57:58;10.00;9.00;5.00
26185;PMS7003;20067;48.764;9.176;2023-04-29T04:00:24;9.00;9.00;5.00
26185;PMS7003;20067;48.764;9.176;2023-04-29T04:02:50;12.25;11.50;6.00
26185;PMS7003;20067;48.764;9.176;2023-04-29T04:05:16;11.50;10.00;5.00
26185;PMS7003;20067;48.764;9.176;2023-04-29T04:07:44;11.00;11.00;5.50
26185;PMS7003;20067;48.764;9.176;2023-04-29T04:10:10;9.00;9.00;5.00
26185;PMS7003;20067;48.764;9.176;2023-04-29T04:12:36;12.00;8.75;4.75
26185;PMS7003;20067;48.764;9.176;2023-04-29T04:15:01;14.00;11.00;6.75
26185;PMS7003;20067;48.764;9.176;2023-04-29T04:17:28;13.75;11.25;6.25
26185;PMS7003;20067;48.764;9.176;2023-04-29T04:19:54;10.00;10.00;7.00
26185;PMS7003;20067;48.764;9.176;2023-04-29T04:22:19;12.00;11.50;6.75
26185;PMS7003;20067;48.764;9.176;2023-04-29T04:24:45;11.00;11.00;7.00
26185;PMS7003;20067;48.764;9.176;2023-04-29T04:27:11;12.00;12.00;7.00
26185;PMS7003;20067;48.764;9.176;2023-04-29T04:29:37;10.00;10.00;5.00
26185;PMS7003;20067;48.764;9.176;2023-04-29T04:32:03;14.00;13.25;8.00
26185;PMS7003;20067;48.764;9.176;2023-04-29T04:34:29;14.25;13.25;8.50
26185;PMS7003;20067;48.764;9.176;2023-04-29T04:36:54;16.50;15.00;10.50
26185;PMS7003;20067;48.764;9.176;2023-04-29T04:39:20;16.75;15.50;10.00
26185;PMS7003;20067;48.764;9.176;2023-04-29T04:41:46;19.00;16.00;11.00
26185;PMS7003;20067;48.764;9.176;2023-04-29T04:44:11;23.25;20.50;13.00
26185;PMS7003;20067;48.764;9.176;2023-04-29T04:46:38;19.00;17.25;13.00
26185;PMS7003;20067;48.764;9.176;2023-04-29T04:49:03;20.50;18.50;13.00
26185;PMS7003;20067;48.764;9.176;2023-04-29T04:51:29;18.75;18.75;14.00
26185;PMS7003;20067;48.764;9.176;2023-04-29T04:53:55;19.25;19.25;13.25
26185;PMS7003;20067;48.764;9.176;2023-04-29T04:56:21;20.00;18.25;14.00
26185;PMS7003;20067;48.764;9.176;2023-04-29T04:58:46;16.25;16.25;12.75
26185;PMS7003;20067;48.764;9.176;2023-04-29T05:01:12;13.00;12.75;9.00
26185;PMS7003;20067;48.764;9.176;2023-04-29T05:03:37;15.75;14.50;10.00
26185;PMS7003;20067;48.764;9.176;2023-04-29T05:06:03;14.25;13.25;8.25
26185;PMS7003;20067;48.764;9.176;2023-04-29T05:08:29;12.50;12.00;7.75
26185;PMS7003;20067;48.764;9.176;2023-04-29T05:10:54;12.00;11.25;7.00
26185;PMS7003;20067;48.764;9.176;2023-04-29T05:13:21;14.50;14.00;9.75
26185;PMS7003;20067;48.764;9.176;2023-04-29T05:15:47;18.00;17.50;11.25
26185;PMS7003;20067;48.764;9.176;2023-04-29T05:18:13;27.75;21.50;15.25
26185;PMS7003;20067;48.764;9.176;2023-04-29T05:20:38;26.00;23.25;17.75
26185;PMS7003;20067;48.764;9.176;2023-04-29T05:23:04;30.25;28.25;22.00
26185;PMS7003;20067;48.764;9.176;2023-04-29T05:25:29;31.67;28.33;23.33
26185;PMS7003;20067;48.764;9.176;2023-04-29T05:27:55;34.00;31.33;26.00
26185;PMS7003;20067;48.764;9.176;2023-04-29T05:30:21;28.00;26.25;22.00
26185;PMS7003;20067;48.764;9.176;2023-04-29T05:32:47;31.75;31.75;24.00
26185;PMS7003;20067;48.764;9.176;2023-04-29T05:35:15;29.25;27.00;21.50
26185;PMS7003;20067;48.764;9.176;2023-04-29T05:37:41;23.75;23.75;19.00
26185;PMS7003;20067;48.764;9.176;2023-04-29T05:40:07;31.75;31.00;24.00
26185;PMS7003;20067;48.764;9.176;2023-04-29T05:42:33;29.50;27.75;23.25
26185;PMS7003;20067;48.764;9.176;2023-04-29T05:44:59;28.00;27.50;21.75
26185;PMS7003;20067;48.764;9.176;2023-04-29T05:47:24;24.00;23.00;18.00
26185;PMS7003;20067;48.764;9.176;2023-04-29T05:49:50;24.25;23.75;18.00
26185;PMS7003;20067;48.764;9.176;2023-04-29T05:52:16;21.00;21.00;15.25
26185;PMS7003;20067;48.764;9.176;2023-04-29T05:54:41;22.50;20.50;15.25
26185;PMS7003;20067;48.764;9.176;2023-04-29T05:57:07;19.00;19.00;13.50
26185;PMS7003;20067;48.764;9.176;2023-04-29T05:59:33;16.75;16.25;11.75
26185;PMS7003;20067;48.764;9.176;2023-04-29T06:01:58;19.25;15.75;11.00
26185;PMS7003;20067;48.764;9.176;2023-04-29T06:04:24;18.00;16.00;11.50
26185;PMS7003;20067;48.764;9.176;2023-04-29T06:06:51;15.00;15.00;9.00
26185;PMS7003;20067;48.764;9.176;2023-04-29T06:09:21;13.50;13.00;9.00
26185;PMS7003;20067;48.764;9.176;2023-04-29T06:11:49;15.00;14.50;9.00
26185;PMS7003;20067;48.764;9.176;2023-04-29T06:14:15;13.75;12.25;9.00
26185;PMS7003;20067;48.764;9.176;2023-04-29T06:16:41;12.25;12.00;6.00
26185;PMS7003;20067;48.764;9.176;2023-04-29T06:19:07;12.00;10.75;6.00
26185;PMS7003;20067;48.764;9.176;2023-04-29T06:21:33;15.75;14.50;8.00
26185;PMS7003;20067;48.764;9.176;2023-04-29T06:23:58;14.50;12.50;7.00
26185;PMS7003;20067;48.764;9.176;2023-04-29T06:26:24;12.25;12.25;7.75
26185;PMS7003;20067;48.764;9.176;2023-04-29T06:28:50;16.75;16.00;9.00
26185;PMS7003;20067;48.764;9.176;2023-04-29T06:31:15;14.75;14.75;8.00
26185;PMS7003;20067;48.764;9.176;2023-04-29T06:33:41;16.00;13.00;8.25
26185;PMS7003;20067;48.764;9.176;2023-04-29T06:36:08;11.75;11.50;6.50
26185;PMS7003;20067;48.764;9.176;2023-04-29T06:38:33;13.25;12.25;8.00
26185;PMS7003;20067;48.764;9.176;2023-04-29T06:40:59;14.75;12.00;8.00
26185;PMS7003;20067;48.764;9.176;2023-04-29T06:43:34;15.75;14.50;8.00
26185;PMS7003;20067;48.764;9.176;2023-04-29T06:45:59;14.25;12.50;7.50
26185;PMS7003;20067;48.764;9.176;2023-04-29T06:48:25;15.50;13.00;8.50
26185;PMS7003;20067;48.764;9.176;2023-04-29T06:50:52;12.00;12.00;6.00
26185;PMS7003;20067;48.764;9.176;2023-04-29T06:53:20;13.25;10.75;5.50
26185;PMS7003;20067;48.764;9.176;2023-04-29T06:55:46;12.25;12.25;6.00
26185;PMS7003;20067;48.764;9.176;2023-04-29T06:58:12;10.75;10.75;5.50
26185;PMS7003;20067;48.764;9.176;2023-04-29T07:00:38;12.00;12.00;6.00
26185;PMS7003;20067;48.764;9.176;2023-04-29T07:03:04;11.50;10.00;5.25
26185;PMS7003;20067;48.764;9.176;2023-04-29T07:05:30;15.75;12.00;5.50
26185;PMS7003;20067;48.764;9.176;2023-04-29T07:07:56;12.00;9.75;5.00
26185;PMS7003;20067;48.764;9.176;2023-04-29T07:10:22;10.75;10.75;5.75
26185;PMS7003;20067;48.764;9.176;2023-04-29T07:12:47;11.00;11.00;6.00
26185;PMS7003;20067;48.764;9.176;2023-04-29T07:15:13;12.50;12.50;6.25
26185;PMS7003;20067;48.764;9.176;2023-04-29T07:17:39;9.00;9.00;4.75
26185;PMS7003;20067;48.764;9.176;2023-04-29T07:20:05;11.50;10.00;4.75
26185;PMS7003;20067;48.764;9.176;2023-04-29T07:22:31;12.00;11.00;5.00
26185;PMS7003;20067;48.764;9.176;2023-04-29T07:24:57;12.00;11.75;5.00
26185;PMS7003;20067;48.764;9.176;2023-04-29T07:27:23;9.00;9.00;5.00
26185;PMS7003;20067;48.764;9.176;2023-04-29T07:29:49;9.00;9.00;5.00
26185;PMS7003;20067;48.764;9.176;2023-04-29T07:32:15;10.00;9.25;5.00
26185;PMS7003;20067;48.764;9.176;2023-04-29T07:34:40;8.00;8.00;4.25
26185;PMS7003;20067;48.764;9.176;2023-04-29T07:37:06;9.00;7.00;3.00
26185;PMS7003;20067;48.764;9.176;2023-04-29T07:39:32;6.75;6.75;3.50
26185;PMS7003;20067;48.764;9.176;2023-04-29T07:41:59;7.75;7.25;3.00
26185;PMS7003;20067;48.764;9.176;2023-04-29T07:44:25;6.00;6.00;2.25
26185;PMS7003;20067;48.764;9.176;2023-04-29T07:46:50;7.00;7.00;3.00
26185;PMS7003;20067;48.764;9.176;2023-04-29T07:49:16;7.00;7.00;3.00
26185;PMS7003;20067;48.764;9.176;2023-04-29T07:51:42;7.75;7.00;4.00
26185;PMS7003;20067;48.764;9.176;2023-04-29T07:54:08;7.00;7.00;2.50
26185;PMS7003;20067;48.764;9.176;2023-04-29T07:56:33;8.75;7.50;3.50
26185;PMS7003;20067;48.764;9.176;2023-04-29T07:58:59;6.75;6.00;2.00
26185;PMS7003;20067;48.764;9.176;2023-04-29T08:01:25;7.00;7.00;2.25
26185;PMS7003;20067;48.764;9.176;2023-04-29T08:03:52;5.25;5.25;2.00
26185;PMS7003;20067;48.764;9.176;2023-04-29T08:06:18;7.00;7.00;3.00
26185;PMS7003;20067;48.764;9.176;2023-04-29T08:08:46;6.50;6.50;3.00
26185;PMS7003;20067;48.764;9.176;2023-04-29T08:11:18;6.75;6.00;2.25
26185;PMS7003;20067;48.764;9.176;2023-04-29T08:13:44;7.25;6.00;2.25
26185;PMS7003;20067;48.764;9.176;2023-04-29T08:16:10;7.50;7.50;3.75
26185;PMS7003;20067;48.764;9.176;2023-04-29T08:18:37;6.00;6.00;2.00
26185;PMS7003;20067;48.764;9.176;2023-04-29T08:21:03;8.00;7.25;2.50
26185;PMS7003;20067;48.764;9.176;2023-04-29T08:23:29;6.00;6.00;2.00
26185;PMS7003;20067;48.764;9.176;2023-04-29T08:25:55;9.00;8.00;4.00
26185;PMS7003;20067;48.764;9.176;2023-04-29T08:28:21;9.00;7.75;3.00
26185;PMS7003;20067;48.764;9.176;2023-04-29T08:30:46;9.50;6.50;2.00
26185;PMS7003;20067;48.764;9.176;2023-04-29T08:33:13;7.00;7.00;3.00
26185;PMS7003;20067;48.764;9.176;2023-04-29T08:35:39;6.75;6.75;2.75
26185;PMS7003;20067;48.764;9.176;2023-04-29T08:38:05;7.75;7.75;3.00
26185;PMS7003;20067;48.764;9.176;2023-04-29T08:40:35;10.00;10.00;4.50
26185;PMS7003;20067;48.764;9.176;2023-04-29T08:43:12;8.50;6.00;3.50
26185;PMS7003;20067;48.764;9.176;2023-04-29T08:45:39;9.00;8.25;4.00
26185;PMS7003;20067;48.764;9.176;2023-04-29T08:48:06;7.25;7.25;4.25
26185;PMS7003;20067;48.764;9.176;2023-04-29T08:50:36;8.00;8.00;4.00
26185;PMS7003;20067;48.764;9.176;2023-04-29T08:53:05;9.00;8.00;4.00
26185;PMS7003;20067;48.764;9.176;2023-04-29T08:55:34;9.25;8.00;4.00
26185;PMS7003;20067;48.764;9.176;2023-04-29T08:58:01;8.50;8.50;4.00
26185;PMS7003;20067;48.764;9.176;2023-04-29T09:00:29;10.00;9.00;4.25
26185;PMS7003;20067;48.764;9.176;2023-04-29T09:02:56;9.25;9.00;5.00
26185;PMS7003;20067;48.764;9.176;2023-04-29T09:05:24;10.50;10.25;5.00
26185;PMS7003;20067;48.764;9.176;2023-04-29T09:07:51;9.25;9.25;4.25
26185;PMS7003;20067;48.764;9.176;2023-04-29T09:10:17;11.00;11.00;5.00
26185;PMS7003;20067;48.764;9.176;2023-04-29T09:12:43;9.00;8.25;4.00
26185;PMS7003;20067;48.764;9.176;2023-04-29T09:15:10;9.75;8.50;5.00
26185;PMS7003;20067;48.764;9.176;2023-04-29T09:22:50;11.75;10.00;5.00
26185;PMS7003;20067;48.764;9.176;2023-04-29T09:25:17;11.25;11.25;5.00
26185;PMS7003;20067;48.764;9.176;2023-04-29T09:27:43;7.75;7.75;4.00
26185;PMS7003;20067;48.764;9.176;2023-04-29T09:30:09;9.00;8.25;4.25
26185;PMS7003;20067;48.764;9.176;2023-04-29T09:32:36;9.00;9.00;4.00
26185;PMS7003;20067;48.764;9.176;2023-04-29T09:37:47;14.25;13.00;8.00
26185;PMS7003;20067;48.764;9.176;2023-04-29T09:40:32;13.00;12.00;6.00
26185;PMS7003;20067;48.764;9.176;2023-04-29T09:42:58;10.00;10.00;5.00
26185;PMS7003;20067;48.764;9.176;2023-04-29T09:45:34;12.00;10.00;5.00
26185;PMS7003;20067;48.764;9.176;2023-04-29T09:48:02;10.00;9.00;4.75
26185;PMS7003;20067;48.764;9.176;2023-04-29T09:50:29;9.00;7.00;3.00
26185;PMS7003;20067;48.764;9.176;2023-04-29T09:52:55;7.75;6.25;2.00
26185;PMS7003;20067;48.764;9.176;2023-04-29T09:55:21;10.00;9.00;3.00
26185;PMS7003;20067;48.764;9.176;2023-04-29T09:57:47;8.50;8.50;3.00
26185;PMS7003;20067;48.764;9.176;2023-04-29T10:00:13;7.75;7.00;3.00
26185;PMS7003;20067;48.764;9.176;2023-04-29T10:02:42;7.25;6.25;2.00
26185;PMS7003;20067;48.764;9.176;2023-04-29T10:05:11;6.00;6.00;2.00
26185;PMS7003;20067;48.764;9.176;2023-04-29T10:07:39;6.75;6.75;2.75
26185;PMS7003;20067;48.764;9.176;2023-04-29T10:10:06;9.00;7.00;3.00
26185;PMS7003;20067;48.764;9.176;2023-04-29T10:12:34;9.50;7.75;3.00
26185;PMS7003;20067;48.764;9.176;2023-04-29T10:15:05;7.50;7.00;3.00
26185;PMS7003;20067;48.764;9.176;2023-04-29T10:18:02;6.75;6.00;2.25
26185;PMS7003;20067;48.764;9.176;2023-04-29T10:20:56;6.25;6.25;2.00
26185;PMS7003;20067;48.764;9.176;2023-04-29T10:23:26;6.00;6.00;2.00
26185;PMS7003;20067;48.764;9.176;2023-04-29T10:25:54;10.75;7.75;3.00
26185;PMS7003;20067;48.764;9.176;2023-04-29T10:28:21;7.00;7.00;2.25
26185;PMS7003;20067;48.764;9.176;2023-04-29T10:30:49;7.00;6.75;2.00
26185;PMS7003;20067;48.764;9.176;2023-04-29T10:33:18;7.00;6.00;2.25
26185;PMS7003;20067;48.764;9.176;2023-04-29T10:35:45;7.00;6.75;2.00
26185;PMS7003;20067;48.764;9.176;2023-04-29T10:38:19;10.50;6.25;2.00
26185;PMS7003;20067;48.764;9.176;2023-04-29T10:40:49;8.00;7.00;2.50
26185;PMS7003;20067;48.764;9.176;2023-04-29T10:43:21;7.25;6.25;2.75
26185;PMS7003;20067;48.764;9.176;2023-04-29T10:46:16;6.00;6.00;2.25
26185;PMS7003;20067;48.764;9.176;2023-04-29T10:48:43;9.50;7.25;4.00
26185;PMS7003;20067;48.764;9.176;2023-04-29T10:51:09;9.75;6.50;2.50
26185;PMS7003;20067;48.764;9.176;2023-04-29T10:53:35;9.25;8.25;3.00
26185;PMS7003;20067;48.764;9.176;2023-04-29T10:56:20;9.50;8.50;3.00
26185;PMS7003;20067;48.764;9.176;2023-04-29T10:58:46;9.50;6.75;3.00
26185;PMS7003;20067;48.764;9.176;2023-04-29T11:01:12;9.00;9.00;3.50
26185;PMS7003;20067;48.764;9.176;2023-04-29T11:06:18;6.50;6.50;3.00
26185;PMS7003;20067;48.764;9.176;2023-04-29T11:08:44;7.00;7.00;3.00
26185;PMS7003;20067;48.764;9.176;2023-04-29T11:11:11;7.00;7.00;4.50
26185;PMS7003;20067;48.764;9.176;2023-04-29T11:13:38;7.00;7.00;5.00
26185;PMS7003;20067;48.764;9.176;2023-04-29T11:16:05;10.50;7.00;3.00
26185;PMS7003;20067;48.764;9.176;2023-04-29T11:18:32;8.75;7.50;5.00
26185;PMS7003;20067;48.764;9.176;2023-04-29T11:23:34;7.00;7.00;2.75
26185;PMS7003;20067;48.764;9.176;2023-04-29T11:26:00;9.00;9.00;3.00
26185;PMS7003;20067;48.764;9.176;2023-04-29T11:28:26;10.00;8.50;3.50
26185;PMS7003;20067;48.764;9.176;2023-04-29T11:30:52;7.00;7.00;3.00
26185;PMS7003;20067;48.764;9.176;2023-04-29T11:33:21;7.00;6.75;3.00
26185;PMS7003;20067;48.764;9.176;2023-04-29T11:35:51;8.75;8.75;2.50
26185;PMS7003;20067;48.764;9.176;2023-04-29T11:38:24;7.00;5.00;2.00
26185;PMS7003;20067;48.764;9.176;2023-04-29T11:40:51;5.00;5.00;2.00
26185;PMS7003;20067;48.764;9.176;2023-04-29T11:43:17;6.00;6.00;2.00
26185;PMS7003;20067;48.764;9.176;2023-04-29T11:45:46;6.75;6.75;3.00
26185;PMS7003;20067;48.764;9.176;2023-04-29T11:50:47;7.25;7.25;3.00
26185;PMS7003;20067;48.764;9.176;2023-04-29T11:53:15;6.50;6.50;3.00
26185;PMS7003;20067;48.764;9.176;2023-04-29T11:55:44;7.25;6.75;2.25
26185;PMS7003;20067;48.764;9.176;2023-04-29T11:58:10;7.25;7.25;3.00
26185;PMS7003;20067;48.764;9.176;2023-04-29T12:00:36;9.75;9.25;4.00
26185;PMS7003;20067;48.764;9.176;2023-04-29T12:05:49;8.00;8.00;4.00
26185;PMS7003;20067;48.764;9.176;2023-04-29T12:08:19;11.25;8.75;5.00
26185;PMS7003;20067;48.764;9.176;2023-04-29T12:10:48;10.75;9.50;5.50
26185;PMS7003;20067;48.764;9.176;2023-04-29T12:13:15;9.00;9.00;4.00
26185;PMS7003;20067;48.764;9.176;2023-04-29T12:15:41;11.00;10.25;6.00
26185;PMS7003;20067;48.764;9.176;2023-04-29T12:18:09;13.00;9.00;4.50
26185;PMS7003;20067;48.764;9.176;2023-04-29T12:20:35;10.50;10.50;6.00
26185;PMS7003;20067;48.764;9.176;2023-04-29T12:25:50;16.25;12.75;6.00
26185;PMS7003;20067;48.764;9.176;2023-04-29T12:28:17;14.75;12.00;6.00
26185;PMS7003;20067;48.764;9.176;2023-04-29T12:30:44;10.75;10.75;4.50
26185;PMS7003;20067;48.764;9.176;2023-04-29T12:33:21;12.25;12.25;6.75
26185;PMS7003;20067;48.764;9.176;2023-04-29T12:35:54;11.25;11.25;6.00
26185;PMS7003;20067;48.764;9.176;2023-04-29T12:38:22;13.00;13.00;6.00
26185;PMS7003;20067;48.764;9.176;2023-04-29T12:40:51;13.00;13.00;6.00
26185;PMS7003;20067;48.764;9.176;2023-04-29T12:43:18;14.00;14.00;8.00
26185;PMS7003;20067;48.764;9.176;2023-04-29T12:45:44;15.00;12.50;8.50
26185;PMS7003;20067;48.764;9.176;2023-04-29T12:48:10;15.00;13.75;6.25
26185;PMS7003;20067;48.764;9.176;2023-04-29T12:50:38;12.00;11.25;5.00
26185;PMS7003;20067;48.764;9.176;2023-04-29T12:53:04;12.00;10.50;6.25
26185;PMS7003;20067;48.764;9.176;2023-04-29T12:55:33;13.75;10.25;5.25
26185;PMS7003;20067;48.764;9.176;2023-04-29T12:58:00;16.50;14.00;7.00
26185;PMS7003;20067;48.764;9.176;2023-04-29T13:00:29;15.50;12.00;6.25
26185;PMS7003;20067;48.764;9.176;2023-04-29T13:02:56;13.75;11.25;6.00
26185;PMS7003;20067;48.764;9.176;2023-04-29T13:05:21;11.25;11.25;7.00
26185;PMS7003;20067;48.764;9.176;2023-04-29T13:07:48;12.50;12.00;6.00
26185;PMS7003;20067;48.764;9.176;2023-04-29T13:10:13;12.50;12.00;6.00
26185;PMS7003;20067;48.764;9.176;2023-04-29T13:12:40;10.00;9.75;5.25
26185;PMS7003;20067;48.764;9.176;2023-04-29T13:15:06;13.50;12.25;6.00
26185;PMS7003;20067;48.764;9.176;2023-04-29T13:17:35;11.25;10.00;5.00
26185;PMS7003;20067;48.764;9.176;2023-04-29T13:20:04;18.00;14.75;8.75
26185;PMS7003;20067;48.764;9.176;2023-04-29T13:22:30;10.75;10.75;5.75
26185;PMS7003;20067;48.764;9.176;2023-04-29T13:24:56;14.50;12.00;6.00
26185;PMS7003;20067;48.764;9.176;2023-04-29T13:27:22;18.50;16.75;9.00
26185;PMS7003;20067;48.764;9.176;2023-04-29T13:29:48;17.75;16.00;8.00
26185;PMS7003;20067;48.764;9.176;2023-04-29T13:32:13;13.50;13.00;7.00
26185;PMS7003;20067;48.764;9.176;2023-04-29T13:34:40;13.00;13.00;7.00
26185;PMS7003;20067;48.764;9.176;2023-04-29T13:37:07;15.00;11.75;7.00
26185;PMS7003;20067;48.764;9.176;2023-04-29T13:39:33;15.50;15.50;7.00
26185;PMS7003;20067;48.764;9.176;2023-04-29T13:41:59;11.25;11.00;6.00
26185;PMS7003;20067;48.764;9.176;2023-04-29T13:44:25;16.00;14.25;7.50
26185;PMS7003;20067;48.764;9.176;2023-04-29T13:46:51;14.00;13.75;8.00
26185;PMS7003;20067;48.764;9.176;2023-04-29T13:49:17;18.75;15.75;9.50
26185;PMS7003;20067;48.764;9.176;2023-04-29T13:51:43;15.50;14.00;7.25
26185;PMS7003;20067;48.764;9.176;2023-04-29T13:54:08;16.25;14.50;7.00
26185;PMS7003;20067;48.764;9.176;2023-04-29T13:56:34;14.25;14.25;9.00
26185;PMS7003;20067;48.764;9.176;2023-04-29T13:59:00;17.50;15.75;9.50
26185;PMS7003;20067;48.764;9.176;2023-04-29T14:01:25;14.75;11.75;6.00
26185;PMS7003;20067;48.764;9.176;2023-04-29T14:03:51;17.00;13.75;7.00
26185;PMS7003;20067;48.764;9.176;2023-04-29T14:06:17;12.00;12.00;7.25
26185;PMS7003;20067;48.764;9.176;2023-04-29T14:08:43;15.50;12.25;6.00
26185;PMS7003;20067;48.764;9.176;2023-04-29T14:11:09;13.50;12.50;7.50
26185;PMS7003;20067;48.764;9.176;2023-04-29T14:13:35;13.25;12.00;6.25
26185;PMS7003;20067;48.764;9.176;2023-04-29T14:16:00;13.50;13.00;8.25
26185;PMS7003;20067;48.764;9.176;2023-04-29T14:18:29;19.00;17.00;7.25
26185;PMS7003;20067;48.764;9.176;2023-04-29T14:20:55;19.75;18.25;11.00
26185;PMS7003;20067;48.764;9.176;2023-04-29T14:23:22;18.25;16.50;8.00
26185;PMS7003;20067;48.764;9.176;2023-04-29T14:25:47;16.50;13.25;8.00
26185;PMS7003;20067;48.764;9.176;2023-04-29T14:28:13;13.25;13.00;7.25
26185;PMS7003;20067;48.764;9.176;2023-04-29T14:30:38;15.50;13.00;7.25
26185;PMS7003;20067;48.764;9.176;2023-04-29T14:33:05;16.50;15.00;7.75